Airfield :
LOGIN :

Register | Disclaimer

   EN    FR    IT 

 










Legend :    VFR   Marginal VFR   IFR   Intensive IFR   Very Intensive IFR
Visi :
Ceiling :
>= 8 km
>= 3000ft
5 to 8 km
1000 to 3000 ft
1500m to 5 km
500 to 1000 ft
800 to 1500m
200 to 500 ft
< 800m
< 200 ft
Symbols :   Thunderstorms  Fog  Heavy snow  Heavy precipitations  Wind > 20 kt
SIGMETs :     Misc.  Thunderstorms  Icing  Turbulence  Mountain Waves  Volcanic Ashes







- Airport Elevation : 1234 ft
- IATA code : LUX


ELLX - Luxembourg Findel

CURRENT METAR :
  • 160850Z 29007KT 260V320 3000 BR FEW011 BKN040 01/00 Q1010 NOSIG

EXPIRED METARs :
  • 160820Z 28007KT 3000 BR FEW006 BKN039 01/01 Q1009 NOSIG
  • 160750Z 28006KT 3000 BR FEW004 BKN030 01/00 Q1009 NOSIG
  • 160720Z 28006KT 4500 BR FEW005 BKN032 01/00 Q1008 NOSIG
  • 160650Z 28005KT 6000 SCT008 BKN018 BKN030 00/00 Q1007 NOSIG
  • 160620Z 28005KT 250V310 //// R24/P2000N SCT007 BKN018 01/00 Q1007 NOSIG

TAF TAF ELLX
Valid from the 16 at 06:00 until the 17 at 12:00 UTC


160500Z 1606/1712 32009KT 9999 SCT010 BKN020
TEMPO 1606/1609 2000 BR BKN003
PROB40
TEMPO 1606/1609 0500 FG BKN001
TEMPO 1610/1620 4000 -SHRASN BKN008
BECMG 1623/1702 23008KT
TEMPO 1701/1709 2000 BR BKN003
PROB40
TEMPO 1703/1709 0300 FZFG BKN001
ATIS : +352 4798 27300
Met : +352 4798 27010 / 27050
No reported NOTAMs for that airfield.



MET'MAP, your aeronautical weather chart ! - Copyright ORBIFLY December 2007 - Disclaimer

ORBIFLY MET'MAP TEAM :

Programming & Development : Alexandra Zaïnal
Concept & Development : Baudouin d'Aumeries
Co-Development & Prog : Marc-Olivier Méhu
Technical & hardware support : Manuel Goepfert

Contact : metmap@orbifly.com




SOURCES & CREDITS :

   NOAA